Time;durP1;ratioP1;P1;durP2;ratioP2;P2;SDS_P1;SDS_P2;PMS_P1;PMS_P2;Temp;Humidity;BMP_temperature;BMP_pressure;BME280_temperature;BME280_humidity;BME280_pressure;Samples;Min_cycle;Max_cycle;Signal;HPM_P1;HPM_P2
2023/09/11 00:02:10;;;;;;;0.10;0.10;;;15.30;99.90;;;;;;5058255;28;20017;-75
2023/09/11 00:04:36;;;;;;;0.10;0.10;;;15.30;99.90;;;;;;5058401;28;20632;-76
2023/09/11 00:07:02;;;;;;;0.00;0.00;;;15.20;99.90;;;;;;5040763;28;20020;-80
2023/09/11 00:09:28;;;;;;;0.10;0.10;;;15.20;99.90;;;;;;5058764;28;20517;-78
2023/09/11 00:11:54;;;;;;;0.10;0.10;;;15.10;99.90;;;;;;5040614;28;20033;-77
2023/09/11 00:14:20;;;;;;;0.00;0.00;;;15.10;99.90;;;;;;5060541;28;20027;-77
2023/09/11 00:16:46;;;;;;;0.10;0.10;;;15.00;99.90;;;;;;5042382;28;20075;-77
2023/09/11 00:19:13;;;;;;;0.08;0.08;;;15.00;99.90;;;;;;5058192;28;20072;-78
2023/09/11 00:21:39;;;;;;;0.10;0.10;;;15.00;99.90;;;;;;5059936;28;20631;-78
2023/09/11 00:24:05;;;;;;;0.10;0.10;;;15.00;99.90;;;;;;5041398;28;20017;-77
2023/09/11 00:26:31;;;;;;;0.08;0.08;;;14.70;99.90;;;;;;5059296;28;20044;-83
2023/09/11 00:28:57;;;;;;;0.10;0.10;;;17.40;99.90;;;;;;5041839;28;20730;-78
2023/09/11 00:31:22;;;;;;;0.00;0.00;;;15.00;99.90;;;;;;5059956;28;20104;-77
2023/09/11 00:33:48;;;;;;;0.10;0.10;;;14.90;99.90;;;;;;5059410;28;20109;-78
2023/09/11 00:36:14;;;;;;;0.10;0.10;;;14.30;99.90;;;;;;5058963;28;20498;-78
2023/09/11 00:38:40;;;;;;;0.10;0.10;;;15.00;99.90;;;;;;5057531;28;20524;-77
2023/09/11 00:41:06;;;;;;;0.10;0.10;;;15.00;99.90;;;;;;5058410;28;20024;-75
2023/09/11 00:43:31;;;;;;;0.82;0.82;;;14.90;99.90;;;;;;5061691;28;20195;-76
2023/09/11 00:45:58;;;;;;;0.10;0.10;;;14.90;99.90;;;;;;5060909;28;20664;-76
2023/09/11 00:48:24;;;;;;;0.10;0.10;;;14.90;99.90;;;;;;5043321;28;20070;-76
2023/09/11 00:50:50;;;;;;;0.00;0.00;;;15.60;99.90;;;;;;5061581;28;20052;-77
2023/09/11 00:53:18;;;;;;;0.90;0.90;;;14.90;99.90;;;;;;5026627;28;20539;-81
2023/09/11 00:55:45;;;;;;;0.10;0.10;;;14.90;99.90;;;;;;5061044;28;20252;-76
2023/09/11 00:58:12;;;;;;;0.00;0.00;;;14.80;99.90;;;;;;5043283;28;20024;-76
2023/09/11 01:00:38;;;;;;;0.10;0.10;;;14.80;99.90;;;;;;5061272;28;20529;-76
2023/09/11 01:03:05;;;;;;;0.20;0.20;;;14.70;99.90;;;;;;5060904;28;20309;-78
2023/09/11 01:05:31;;;;;;;0.10;0.10;;;14.70;99.90;;;;;;5060625;28;20090;-76
2023/09/11 01:07:57;;;;;;;3.83;1.85;;;14.70;99.90;;;;;;5043016;28;20031;-76
2023/09/11 01:10:23;;;;;;;0.00;0.00;;;14.70;99.90;;;;;;5060770;28;20009;-76
2023/09/11 01:12:49;;;;;;;0.10;0.10;;;14.70;99.90;;;;;;5043152;28;20025;-84
2023/09/11 01:15:15;;;;;;;0.10;0.10;;;14.60;99.90;;;;;;5061431;28;20040;-76
2023/09/11 01:17:45;;;;;;;3.83;3.65;;;14.60;99.90;;;;;;5009744;28;20017;-76
2023/09/11 01:20:44;;;;;;;0.00;0.00;;;14.60;99.90;;;;;;5060930;28;20032;-76
2023/09/11 01:23:22;;;;;;;0.00;0.00;;;14.60;99.90;;;;;;5060673;28;20024;-76
2023/09/11 01:26:18;;;;;;;0.03;0.03;;;14.60;99.90;;;;;;5062244;28;20020;-77
2023/09/11 01:29:07;;;;;;;6.25;3.80;;;14.60;99.90;;;;;;5062805;28;20082;-76
2023/09/11 01:31:35;;;;;;;0.08;0.08;;;14.50;99.90;;;;;;5062967;28;20025;-79
2023/09/11 01:34:03;;;;;;;0.10;0.10;;;14.50;99.90;;;;;;5062970;28;20024;-76
2023/09/11 01:36:29;;;;;;;0.10;0.10;;;14.60;99.90;;;;;;5062759;28;20502;-76
2023/09/11 01:38:55;;;;;;;0.10;0.10;;;14.50;99.90;;;;;;5077754;28;20207;-78
2023/09/11 01:41:27;;;;;;;0.95;0.95;;;14.50;99.90;;;;;;5061924;28;20074;-75
2023/09/11 01:43:57;;;;;;;0.10;0.10;;;14.50;99.90;;;;;;5061738;28;20396;-75
2023/09/11 01:46:25;;;;;;;0.00;0.00;;;15.00;99.90;;;;;;5060592;28;20029;-79
2023/09/11 01:48:51;;;;;;;0.00;0.00;;;14.40;99.90;;;;;;5060610;28;20091;-75
2023/09/11 01:51:18;;;;;;;0.00;0.00;;;14.40;99.90;;;;;;5042434;28;20017;-76
2023/09/11 01:53:45;;;;;;;0.00;0.00;;;14.40;99.90;;;;;;5059134;28;20102;-75
2023/09/11 01:56:11;;;;;;;0.10;0.10;;;14.40;99.90;;;;;;5026090;28;20486;-80
2023/09/11 01:58:37;;;;;;;0.75;0.75;;;14.40;99.90;;;;;;5042535;28;20028;-76
2023/09/11 02:01:03;;;;;;;0.00;0.00;;;14.40;99.90;;;;;;5061890;28;20053;-76
2023/09/11 02:03:28;;;;;;;0.10;0.10;;;14.30;99.90;;;;;;5060846;28;20017;-76
2023/09/11 02:05:54;;;;;;;0.00;0.00;;;14.30;99.90;;;;;;5060206;28;20505;-76
2023/09/11 02:08:20;;;;;;;0.10;0.10;;;14.30;99.90;;;;;;5042306;28;20051;-75
2023/09/11 02:10:47;;;;;;;0.10;0.10;;;14.30;99.90;;;;;;5076099;28;20209;-77
2023/09/11 02:13:12;;;;;;;0.03;0.03;;;14.10;99.90;;;;;;5063081;28;20100;-76
2023/09/11 02:15:38;;;;;;;0.10;0.10;;;14.20;99.90;;;;;;5062592;28;20140;-76
2023/09/11 02:18:04;;;;;;;0.00;0.00;;;14.20;99.90;;;;;;5062789;28;20112;-79
2023/09/11 02:20:30;;;;;;;0.10;0.10;;;14.20;99.90;;;;;;5062529;28;20039;-76
2023/09/11 02:22:56;;;;;;;0.00;0.00;;;14.20;99.90;;;;;;5062265;28;20017;-76
2023/09/11 02:25:22;;;;;;;0.10;0.10;;;14.10;99.90;;;;;;5077283;28;20017;-75
2023/09/11 02:27:48;;;;;;;0.10;0.10;;;14.10;99.90;;;;;;5062564;28;20055;-75
2023/09/11 02:30:14;;;;;;;0.10;0.10;;;14.00;99.90;;;;;;5061762;28;20461;-76
2023/09/11 02:32:39;;;;;;;0.10;0.10;;;14.00;99.90;;;;;;5061042;28;20024;-77
2023/09/11 02:35:05;;;;;;;0.20;0.20;;;12.10;99.90;;;;;;5059704;28;20059;-74
2023/09/11 02:37:31;;;;;;;0.47;0.47;;;14.00;99.90;;;;;;5041453;28;20036;-76
2023/09/11 02:39:57;;;;;;;0.10;0.10;;;13.70;99.90;;;;;;5041409;28;20395;-76
2023/09/11 02:42:23;;;;;;;0.10;0.10;;;14.00;99.90;;;;;;5059662;28;20432;-77
2023/09/11 02:44:49;;;;;;;0.10;0.10;;;14.00;99.90;;;;;;5059437;28;20021;-77
2023/09/11 02:47:14;;;;;;;0.10;0.10;;;14.00;99.90;;;;;;5060202;28;20478;-77
2023/09/11 02:49:40;;;;;;;0.10;0.10;;;13.90;99.90;;;;;;5042196;28;20017;-76
2023/09/11 02:52:06;;;;;;;0.10;0.10;;;13.80;99.90;;;;;;5041555;28;20017;-76
2023/09/11 02:54:32;;;;;;;0.10;0.10;;;13.80;99.90;;;;;;5059383;28;20412;-76
2023/09/11 02:56:58;;;;;;;0.10;0.10;;;13.80;99.90;;;;;;5059114;28;20020;-76
2023/09/11 02:59:24;;;;;;;0.10;0.10;;;15.80;99.90;;;;;;5059095;28;20505;-78
2023/09/11 03:01:49;;;;;;;0.10;0.10;;;13.70;99.90;;;;;;5059692;28;20017;-76
2023/09/11 03:04:15;;;;;;;0.10;0.10;;;13.60;99.90;;;;;;5059125;28;20662;-76
2023/09/11 03:06:41;;;;;;;0.20;0.20;;;13.60;99.90;;;;;;5058946;28;20013;-81
2023/09/11 03:09:07;;;;;;;0.10;0.10;;;13.60;99.90;;;;;;5060021;28;20101;-77
2023/09/11 03:11:33;;;;;;;0.10;0.10;;;13.60;99.90;;;;;;5059156;28;20618;-77
2023/09/11 03:13:59;;;;;;;0.10;0.10;;;13.50;99.90;;;;;;5060662;28;20024;-76
2023/09/11 03:16:25;;;;;;;0.10;0.10;;;13.50;99.90;;;;;;5043015;28;20597;-81
2023/09/11 03:18:52;;;;;;;0.00;0.00;;;13.50;99.90;;;;;;5075234;28;20506;-78
2023/09/11 03:21:17;;;;;;;0.10;0.10;;;13.40;99.90;;;;;;5042207;28;20033;-77
2023/09/11 03:23:43;;;;;;;0.05;0.05;;;13.40;99.90;;;;;;5060629;28;20390;-77
2023/09/11 03:26:16;;;;;;;0.00;0.00;;;13.30;99.90;;;;;;5059419;28;20349;-79
2023/09/11 03:28:50;;;;;;;1.57;1.47;;;13.30;99.90;;;;;;5025511;28;20325;-80
2023/09/11 03:31:16;;;;;;;0.10;0.10;;;13.30;99.90;;;;;;5059757;28;20028;-75
2023/09/11 03:33:42;;;;;;;0.10;0.10;;;13.20;99.90;;;;;;5059012;28;20525;-75
2023/09/11 03:36:10;;;;;;;0.10;0.10;;;13.20;99.90;;;;;;5060148;28;20173;-78
2023/09/11 03:38:36;;;;;;;0.10;0.10;;;13.20;99.90;;;;;;5041478;28;20036;-78
2023/09/11 03:41:03;;;;;;;0.00;0.00;;;13.10;99.90;;;;;;5042418;28;20024;-77
2023/09/11 03:43:29;;;;;;;0.03;0.03;;;13.10;99.90;;;;;;5058754;28;20669;-77
2023/09/11 03:45:55;;;;;;;0.10;0.10;;;;;;;;;;5060037;28;20150;-78
2023/09/11 03:48:21;;;;;;;0.10;0.10;;;13.30;99.90;;;;;;5059144;28;20047;-78
2023/09/11 03:50:47;;;;;;;0.50;0.50;;;13.20;99.90;;;;;;5058755;28;20100;-80
2023/09/11 03:53:14;;;;;;;0.00;0.00;;;13.30;99.90;;;;;;5060463;28;20024;-78
2023/09/11 03:55:40;;;;;;;0.10;0.10;;;13.30;99.90;;;;;;5060627;28;20055;-77
2023/09/11 03:58:06;;;;;;;0.10;0.10;;;13.30;99.90;;;;;;5058990;28;20398;-76
2023/09/11 04:00:44;;;;;;;1.08;1.08;;;13.40;99.90;;;;;;5058282;28;20059;-78
2023/09/11 04:03:09;;;;;;;0.10;0.10;;;13.30;99.90;;;;;;5040378;28;20089;-78
2023/09/11 04:05:36;;;;;;;0.10;0.10;;;13.50;99.90;;;;;;5058604;28;20433;-78
2023/09/11 04:08:02;;;;;;;0.00;0.00;;;13.50;99.90;;;;;;5058435;28;20355;-79
2023/09/11 04:10:28;;;;;;;0.10;0.10;;;14.30;99.90;;;;;;5040827;28;20016;-77
2023/09/11 04:12:54;;;;;;;0.00;0.00;;;13.50;99.90;;;;;;5073762;28;20055;-78
2023/09/11 04:15:19;;;;;;;0.10;0.10;;;13.50;99.90;;;;;;5058285;28;20053;-81
2023/09/11 04:17:45;;;;;;;0.85;0.85;;;13.60;99.90;;;;;;5061961;28;20052;-78
2023/09/11 04:20:14;;;;;;;8.43;6.75;;;13.50;99.90;;;;;;5062065;28;20036;-77
2023/09/11 04:22:39;;;;;;;0.17;0.17;;;13.50;99.90;;;;;;5063107;28;20056;-79
2023/09/11 04:25:06;;;;;;;0.10;0.10;;;13.50;99.90;;;;;;5044884;28;20051;-80
2023/09/11 04:27:32;;;;;;;0.32;0.32;;;13.40;99.90;;;;;;5044532;28;20732;-77
2023/09/11 04:29:59;;;;;;;0.10;0.10;;;13.40;99.90;;;;;;5062643;28;20103;-79
2023/09/11 04:32:25;;;;;;;0.10;0.10;;;13.40;99.90;;;;;;5044346;28;20013;-78
2023/09/11 04:34:50;;;;;;;0.10;0.10;;;13.40;99.90;;;;;;5061677;28;20190;-78
2023/09/11 04:37:17;;;;;;;0.95;0.95;;;13.30;99.90;;;;;;5062088;28;20628;-79
2023/09/11 04:39:43;;;;;;;0.10;0.10;;;13.20;99.90;;;;;;5061937;28;20028;-78
2023/09/11 04:42:08;;;;;;;0.85;0.85;;;13.20;99.90;;;;;;5043767;28;20029;-78
2023/09/11 04:44:36;;;;;;;0.20;0.20;;;13.20;99.90;;;;;;5077798;28;20456;-77
2023/09/11 04:47:03;;;;;;;0.10;0.10;;;13.10;99.90;;;;;;5063857;28;20020;-77
2023/09/11 04:49:29;;;;;;;0.10;0.10;;;13.10;99.90;;;;;;5045064;28;20086;-77
2023/09/11 04:51:55;;;;;;;0.00;0.00;;;;;;;;;;5063075;28;20545;-79
2023/09/11 04:54:21;;;;;;;0.10;0.10;;;13.00;99.90;;;;;;5043131;28;20119;-78
2023/09/11 04:56:47;;;;;;;0.00;0.00;;;13.00;99.90;;;;;;5062072;28;20150;-78
2023/09/11 04:59:12;;;;;;;0.10;0.10;;;13.00;99.90;;;;;;5044527;28;20114;-77
2023/09/11 05:01:38;;;;;;;0.10;0.10;;;13.00;99.90;;;;;;5043400;28;20352;-81
2023/09/11 05:04:05;;;;;;;0.10;0.10;;;13.00;99.90;;;;;;5043607;28;20571;-78
2023/09/11 05:06:31;;;;;;;0.10;0.10;;;13.00;99.90;;;;;;5061676;28;20684;-77
2023/09/11 05:08:59;;;;;;;0.10;0.10;;;13.00;99.90;;;;;;5061676;28;20261;-78
2023/09/11 05:11:25;;;;;;;0.10;0.10;;;13.00;99.90;;;;;;5043946;28;20317;-78
2023/09/11 05:13:52;;;;;;;0.10;0.10;;;;;;;;;;5061399;28;20021;-78
2023/09/11 05:16:18;;;;;;;0.00;0.00;;;13.00;99.90;;;;;;5043352;28;20549;-78
2023/09/11 05:18:44;;;;;;;0.00;0.00;;;13.10;99.90;;;;;;5061595;28;20108;-78
2023/09/11 05:21:10;;;;;;;16.15;7.88;;;13.10;99.90;;;;;;5061144;28;20021;-78
2023/09/11 05:23:36;;;;;;;0.00;0.00;;;13.20;99.90;;;;;;5061197;28;20013;-80
2023/09/11 05:26:03;;;;;;;0.10;0.10;;;13.20;99.90;;;;;;5060747;28;20012;-78
2023/09/11 05:28:29;;;;;;;0.10;0.10;;;13.20;99.90;;;;;;5060767;28;20055;-78
2023/09/11 05:30:55;;;;;;;0.10;0.10;;;13.00;99.90;;;;;;5062939;28;20203;-84
2023/09/11 05:33:20;;;;;;;0.22;0.22;;;15.80;99.90;;;;;;5043967;28;20089;-78
2023/09/11 05:35:46;;;;;;;0.10;0.10;;;13.30;99.90;;;;;;5062266;28;20035;-78
2023/09/11 05:38:12;;;;;;;5.80;5.25;;;13.30;99.90;;;;;;5061384;28;20025;-78
2023/09/11 05:40:38;;;;;;;2.20;2.10;;;;;;;;;;5061671;28;20440;-78
2023/09/11 05:43:04;;;;;;;0.30;0.30;;;13.50;99.90;;;;;;5042374;28;20089;-83
2023/09/11 05:45:30;;;;;;;0.20;0.20;;;13.60;99.90;;;;;;5061111;28;20055;-79
2023/09/11 05:47:56;;;;;;;3.10;2.90;;;13.60;99.90;;;;;;5060909;28;20028;-78
2023/09/11 05:50:22;;;;;;;1.02;0.98;;;13.70;99.90;;;;;;5043129;28;20032;-78
2023/09/11 05:52:47;;;;;;;0.00;0.00;;;13.70;99.90;;;;;;5060757;28;20012;-78
2023/09/11 05:55:13;;;;;;;0.80;0.80;;;13.80;99.90;;;;;;5059943;28;20402;-77
2023/09/11 05:57:40;;;;;;;0.10;0.10;;;13.90;99.90;;;;;;5061230;28;20023;-77
2023/09/11 06:00:12;;;;;;;0.10;0.10;;;14.00;99.90;;;;;;5061514;28;20052;-77
2023/09/11 06:02:40;;;;;;;0.10;0.10;;;14.80;99.90;;;;;;5062689;28;20055;-78
2023/09/11 06:05:07;;;;;;;0.10;0.10;;;14.20;99.90;;;;;;5043355;28;20036;-78
2023/09/11 06:07:33;;;;;;;0.20;0.20;;;14.30;99.90;;;;;;5061231;28;20103;-78
2023/09/11 06:09:58;;;;;;;0.10;0.10;;;14.50;99.90;;;;;;5062140;28;20490;-77
2023/09/11 06:12:29;;;;;;;0.03;0.03;;;14.50;99.90;;;;;;5060385;28;20016;-76
2023/09/11 06:14:55;;;;;;;0.60;0.60;;;14.60;99.90;;;;;;5060058;28;20517;-81
2023/09/11 06:17:21;;;;;;;0.10;0.10;;;14.70;99.90;;;;;;5059704;28;20059;-75
2023/09/11 06:19:46;;;;;;;0.35;0.35;;;14.90;99.90;;;;;;5059227;28;20028;-79
2023/09/11 06:22:12;;;;;;;0.10;0.10;;;15.00;99.90;;;;;;5059383;28;20123;-77
2023/09/11 06:24:38;;;;;;;0.10;0.10;;;15.20;99.90;;;;;;5059187;28;20085;-80
2023/09/11 06:27:08;;;;;;;0.25;0.25;;;15.30;99.90;;;;;;5060612;28;20348;-80
2023/09/11 06:29:34;;;;;;;0.10;0.10;;;15.50;99.90;;;;;;5060388;28;20439;-77
2023/09/11 06:32:00;;;;;;;0.00;0.00;;;15.60;99.90;;;;;;5060734;28;20051;-78
2023/09/11 06:34:27;;;;;;;0.10;0.10;;;15.70;99.90;;;;;;5044573;28;20021;-81
2023/09/11 06:36:53;;;;;;;0.10;0.10;;;15.90;99.90;;;;;;5045460;28;20078;-81
2023/09/11 06:39:20;;;;;;;0.10;0.10;;;16.60;99.90;;;;;;5078369;28;20028;-81
2023/09/11 06:41:46;;;;;;;0.10;0.10;;;16.20;99.90;;;;;;5045471;28;20441;-77
2023/09/11 06:44:11;;;;;;;0.20;0.20;;;16.20;99.90;;;;;;5064299;28;20088;-82
2023/09/11 06:46:37;;;;;;;0.10;0.10;;;16.30;99.90;;;;;;5062525;28;20679;-78
2023/09/11 06:49:03;;;;;;;3.35;3.03;;;16.40;99.90;;;;;;5063666;28;20035;-77
2023/09/11 06:51:29;;;;;;;0.08;0.08;;;16.50;99.90;;;;;;5059091;28;20413;-78
2023/09/11 06:53:55;;;;;;;0.10;0.10;;;16.60;99.90;;;;;;5059194;28;20047;-78
2023/09/11 06:56:21;;;;;;;0.03;0.03;;;16.70;99.90;;;;;;5059772;28;20036;-82
2023/09/11 06:58:46;;;;;;;0.10;0.10;;;16.90;99.90;;;;;;5041232;28;20055;-79
2023/09/11 07:01:15;;;;;;;0.00;0.00;;;17.00;99.90;;;;;;5059251;28;20021;-78
2023/09/11 07:03:41;;;;;;;0.10;0.10;;;17.10;99.90;;;;;;5059066;28;20078;-85
2023/09/11 07:06:07;;;;;;;0.00;0.00;;;17.20;99.90;;;;;;5058768;28;20048;-79
2023/09/11 07:08:33;;;;;;;0.00;0.00;;;17.40;99.90;;;;;;5058743;28;20040;-78
2023/09/11 07:10:59;;;;;;;0.03;0.03;;;17.60;99.90;;;;;;5058699;28;20166;-78
2023/09/11 07:13:25;;;;;;;0.08;0.08;;;17.80;99.90;;;;;;5058653;28;20573;-82
2023/09/11 07:16:09;;;;;;;0.10;0.10;;;16.80;99.90;;;;;;5040788;28;20241;-79
2023/09/11 07:18:35;;;;;;;1.17;1.08;;;18.00;99.90;;;;;;5060454;28;20572;-78
2023/09/11 07:21:01;;;;;;;0.65;0.65;;;18.10;99.90;;;;;;5041130;28;20505;-79
2023/09/11 07:23:29;;;;;;;0.10;0.10;;;18.20;99.90;;;;;;5059420;28;20016;-78
2023/09/11 07:25:58;;;;;;;0.10;0.10;;;18.30;99.90;;;;;;5074049;28;20039;-81
2023/09/11 07:28:27;;;;;;;0.40;0.40;;;18.10;99.90;;;;;;5058590;28;20033;-80
2023/09/11 07:30:53;;;;;;;0.15;0.15;;;18.30;99.90;;;;;;5041115;28;20024;-83
2023/09/11 07:33:19;;;;;;;0.43;0.43;;;18.50;99.90;;;;;;5058790;28;20031;-84
2023/09/11 07:35:46;;;;;;;0.10;0.10;;;18.50;99.90;;;;;;5058496;28;20395;-78
2023/09/11 07:38:12;;;;;;;0.20;0.20;;;18.70;99.90;;;;;;5058563;28;20028;-78
2023/09/11 07:40:38;;;;;;;0.40;0.40;;;18.90;99.90;;;;;;5058647;28;20119;-78
2023/09/11 07:43:04;;;;;;;0.10;0.10;;;19.00;99.90;;;;;;5073666;28;20125;-77
2023/09/11 07:45:30;;;;;;;0.00;0.00;;;19.00;99.90;;;;;;5058645;28;20036;-78
2023/09/11 07:47:56;;;;;;;0.10;0.10;;;19.00;99.90;;;;;;5040723;28;20017;-78
2023/09/11 07:50:22;;;;;;;0.00;0.00;;;19.30;99.90;;;;;;5057776;28;20320;-77
2023/09/11 07:52:50;;;;;;;0.00;0.00;;;19.50;99.90;;;;;;5058264;28;20390;-79
2023/09/11 07:55:16;;;;;;;0.20;0.20;;;19.70;99.90;;;;;;5058899;28;20243;-77
2023/09/11 07:57:41;;;;;;;0.00;0.00;;;19.80;99.90;;;;;;5058531;28;20024;-78
2023/09/11 08:00:08;;;;;;;0.00;0.00;;;21.80;99.90;;;;;;5058724;28;20513;-81
2023/09/11 08:02:34;;;;;;;0.00;0.00;;;19.80;99.90;;;;;;5041356;28;20024;-79
2023/09/11 08:05:00;;;;;;;3.50;1.25;;;20.00;99.90;;;;;;5059076;28;20347;-78
2023/09/11 08:07:26;;;;;;;0.10;0.10;;;20.20;99.90;;;;;;5060093;28;20236;-78
2023/09/11 08:09:52;;;;;;;0.00;0.00;;;19.50;99.90;;;;;;5058103;28;20039;-79
2023/09/11 08:12:18;;;;;;;0.10;0.10;;;20.40;99.90;;;;;;5059668;28;20217;-81
2023/09/11 08:14:44;;;;;;;0.13;0.13;;;20.60;99.90;;;;;;5074476;28;20016;-76
2023/09/11 08:17:10;;;;;;;0.03;0.03;;;20.80;99.90;;;;;;5073868;28;20047;-78
2023/09/11 08:19:37;;;;;;;0.20;0.20;;;21.10;99.90;;;;;;5040653;28;20531;-78
2023/09/11 08:22:03;;;;;;;1.77;1.17;;;21.20;99.90;;;;;;5073849;28;20498;-79
2023/09/11 08:24:29;;;;;;;0.10;0.10;;;21.40;99.90;;;;;;5040110;28;20021;-78
2023/09/11 08:26:55;;;;;;;3.63;0.93;;;21.40;99.90;;;;;;5039920;28;20348;-81
2023/09/11 08:29:21;;;;;;;0.10;0.10;;;21.60;99.90;;;;;;5057608;28;20012;-75
2023/09/11 08:31:47;;;;;;;0.00;0.00;;;21.80;99.90;;;;;;5073450;28;20035;-75
2023/09/11 08:34:13;;;;;;;0.10;0.10;;;21.80;99.90;;;;;;5072678;28;20059;-76
2023/09/11 08:36:39;;;;;;;0.45;0.38;;;21.90;99.90;;;;;;5072866;28;20036;-76
2023/09/11 08:39:05;;;;;;;0.00;0.00;;;22.20;99.90;;;;;;5057644;28;20391;-86
2023/09/11 08:41:32;;;;;;;1.27;1.17;;;22.30;99.90;;;;;;5073386;28;20522;-77
2023/09/11 08:43:58;;;;;;;0.10;0.10;;;22.30;99.90;;;;;;5039727;28;20314;-83
2023/09/11 08:46:27;;;;;;;0.40;0.32;;;22.30;99.90;;;;;;5057221;28;20025;-77
2023/09/11 08:48:59;;;;;;;0.00;0.00;;;22.40;99.90;;;;;;5039110;28;20506;-83
2023/09/11 08:51:34;;;;;;;0.15;0.15;;;22.60;99.90;;;;;;5039375;28;20074;-76
2023/09/11 08:54:04;;;;;;;0.00;0.00;;;22.50;99.90;;;;;;5039450;28;20082;-76
2023/09/11 08:56:30;;;;;;;0.00;0.00;;;22.70;99.90;;;;;;5039903;28;20033;-82
2023/09/11 08:58:58;;;;;;;0.00;0.00;;;23.00;99.70;;;;;;5040073;28;20222;-81
2023/09/11 09:01:24;;;;;;;0.00;0.00;;;23.10;99.00;;;;;;5057638;28;20301;-76
2023/09/11 09:03:51;;;;;;;0.32;0.32;;;23.30;98.80;;;;;;5044618;28;20221;-81
2023/09/11 09:06:18;;;;;;;0.85;0.82;;;23.50;98.30;;;;;;5063312;28;20031;-81
2023/09/11 09:08:45;;;;;;;0.10;0.10;;;23.70;97.90;;;;;;5076834;28;20024;-76
2023/09/11 09:11:12;;;;;;;0.10;0.10;;;23.80;97.80;;;;;;5064397;28;20017;-79
2023/09/11 09:13:38;;;;;;;0.20;0.20;;;24.00;98.00;;;;;;5063836;28;20615;-76
2023/09/11 09:16:04;;;;;;;0.30;0.30;;;21.00;96.10;;;;;;5029738;28;20041;-76
2023/09/11 09:18:30;;;;;;;0.00;0.00;;;24.40;96.80;;;;;;5061899;28;20221;-76
2023/09/11 09:20:56;;;;;;;0.00;0.00;;;24.40;97.00;;;;;;5078574;28;20028;-76
2023/09/11 09:23:32;;;;;;;0.10;0.10;;;24.60;96.60;;;;;;5062185;28;20107;-82
2023/09/11 09:26:06;;;;;;;0.00;0.00;;;24.90;96.30;;;;;;5062469;28;20286;-78
2023/09/11 09:28:33;;;;;;;0.40;0.38;;;24.90;95.50;;;;;;5063001;28;20518;-76
2023/09/11 09:31:01;;;;;;;0.00;0.00;;;25.00;95.30;;;;;;5061908;28;20024;-76
2023/09/11 09:33:27;;;;;;;0.10;0.10;;;25.00;95.60;;;;;;5061640;28;20654;-84
2023/09/11 09:35:53;;;;;;;5.28;1.23;;;25.10;94.80;;;;;;5064920;28;20037;-76
2023/09/11 09:38:20;;;;;;;0.32;0.28;;;25.20;94.40;;;;;;5042945;28;20032;-75
2023/09/11 09:40:46;;;;;;;0.00;0.00;;;25.30;94.30;;;;;;5045330;28;20179;-76
2023/09/11 09:43:18;;;;;;;0.00;0.00;;;25.40;94.00;;;;;;5043945;28;20016;-76
2023/09/11 09:45:44;;;;;;;2.63;0.40;;;25.40;94.00;;;;;;5046131;28;20035;-77
2023/09/11 09:48:20;;;;;;;0.10;0.10;;;25.60;93.90;;;;;;5061278;28;20020;-76
2023/09/11 09:51:06;;;;;;;0.40;0.40;;;25.40;93.70;;;;;;5062092;28;20024;-84
2023/09/11 09:53:41;;;;;;;0.10;0.10;;;25.50;93.40;;;;;;5061406;28;20414;-76
2023/09/11 09:56:08;;;;;;;0.30;0.30;;;25.80;93.40;;;;;;5060445;28;20067;-76
2023/09/11 09:58:43;;;;;;;0.38;0.38;;;26.10;93.30;;;;;;5043860;28;20017;-77
2023/09/11 10:01:15;;;;;;;4.35;4.05;;;26.10;92.30;;;;;;5061919;28;20029;-80
2023/09/11 10:03:51;;;;;;;0.00;0.00;;;26.30;92.00;;;;;;5044663;28;20121;-77
2023/09/11 10:06:22;;;;;;;0.13;0.10;;;26.40;91.70;;;;;;5061884;28;20506;-77
2023/09/11 10:09:07;;;;;;;0.50;0.40;;;26.50;91.20;;;;;;5062922;28;20341;-77
2023/09/11 10:11:34;;;;;;;0.40;0.20;;;26.60;90.60;;;;;;5062422;28;20093;-77
2023/09/11 10:14:01;;;;;;;1.30;1.08;;;26.70;90.30;;;;;;5042899;28;20024;-77
2023/09/11 10:16:28;;;;;;;0.85;0.85;;;26.70;90.20;;;;;;5065394;28;20040;-77
2023/09/11 10:18:55;;;;;;;0.00;0.00;;;26.70;89.90;;;;;;5044884;28;20035;-76
2023/09/11 10:21:21;;;;;;;0.00;0.00;;;26.70;89.70;;;;;;5026428;28;20097;-77
2023/09/11 10:23:48;;;;;;;0.22;0.22;;;26.90;89.70;;;;;;5042156;28;20100;-78
2023/09/11 10:26:51;;;;;;;0.45;0.45;;;26.90;89.00;;;;;;5061321;28;20025;-75
2023/09/11 10:29:43;;;;;;;0.00;0.00;;;27.10;88.20;;;;;;5060687;28;20074;-76
2023/09/11 10:32:34;;;;;;;3.05;0.38;;;27.40;87.20;;;;;;5044627;28;20044;-75
2023/09/11 10:35:02;;;;;;;0.00;0.00;;;27.70;86.10;;;;;;5043832;28;20483;-76
2023/09/11 10:37:30;;;;;;;0.10;0.10;;;28.40;87.00;;;;;;5061735;28;20112;-77
2023/09/11 10:39:59;;;;;;;0.60;0.60;;;27.80;86.50;;;;;;5060724;28;20027;-77
2023/09/11 10:42:25;;;;;;;0.10;0.10;;;;;;;;;;5062265;28;20035;-77
2023/09/11 10:44:54;;;;;;;0.25;0.15;;;28.00;84.20;;;;;;5044590;28;20055;-80
2023/09/11 10:47:22;;;;;;;0.32;0.32;;;28.10;84.10;;;;;;5063653;28;20020;-79
2023/09/11 10:49:49;;;;;;;0.00;0.00;;;28.40;85.10;;;;;;5045299;28;20141;-80
2023/09/11 10:52:16;;;;;;;1.52;1.20;;;28.40;82.40;;;;;;5064306;28;20017;-80
2023/09/11 10:54:42;;;;;;;0.08;0.08;;;28.60;83.40;;;;;;5065767;28;20028;-76
2023/09/11 10:57:08;;;;;;;0.20;0.20;;;28.70;81.70;;;;;;5050568;28;20247;-78
2023/09/11 10:59:35;;;;;;;0.00;0.00;;;28.90;81.70;;;;;;5077907;28;20035;-76
2023/09/11 11:02:02;;;;;;;0.00;0.00;;;29.20;80.80;;;;;;5042764;28;20240;-76
2023/09/11 11:04:31;;;;;;;0.52;0.30;;;29.40;80.50;;;;;;5026704;28;20031;-77
2023/09/11 11:06:59;;;;;;;0.00;0.00;;;29.50;79.90;;;;;;5043227;28;20120;-77
2023/09/11 11:09:28;;;;;;;0.00;0.00;;;30.10;79.20;;;;;;5060548;28;20128;-76
2023/09/11 11:12:01;;;;;;;0.10;0.10;;;29.70;78.90;;;;;;5043349;28;20101;-76
2023/09/11 11:14:27;;;;;;;0.52;0.38;;;30.50;78.30;;;;;;5059408;28;20553;-76
2023/09/11 11:17:04;;;;;;;0.03;0.03;;;29.70;76.80;;;;;;5060016;28;20225;-76
2023/09/11 11:19:36;;;;;;;0.95;0.95;;;30.20;76.20;;;;;;5059314;28;20029;-76
2023/09/11 11:22:04;;;;;;;0.10;0.10;;;30.50;75.70;;;;;;5041370;28;20118;-78
2023/09/11 11:24:34;;;;;;;0.08;0.08;;;30.70;75.50;;;;;;5040576;28;20266;-76
2023/09/11 11:27:03;;;;;;;0.10;0.10;;;30.70;73.60;;;;;;5059017;28;20105;-77
2023/09/11 11:29:29;;;;;;;0.20;0.20;;;30.60;72.90;;;;;;5059434;28;20082;-77
2023/09/11 11:31:58;;;;;;;0.75;0.75;;;30.80;73.30;;;;;;5059083;28;20021;-76
2023/09/11 11:34:31;;;;;;;0.55;0.20;;;31.00;72.50;;;;;;5042258;28;20024;-76
2023/09/11 11:37:03;;;;;;;0.55;0.20;;;31.10;73.20;;;;;;5060251;28;20021;-86
2023/09/11 11:39:29;;;;;;;0.00;0.00;;;31.30;71.80;;;;;;5041960;28;20463;-77
2023/09/11 11:41:56;;;;;;;0.00;0.00;;;32.00;72.30;;;;;;5059222;28;20036;-77
2023/09/11 11:44:25;;;;;;;1.75;1.30;;;32.30;72.10;;;;;;5059848;28;20074;-76
2023/09/11 11:46:53;;;;;;;0.45;0.43;;;31.70;71.20;;;;;;5059732;28;20047;-77
2023/09/11 11:49:19;;;;;;;0.35;0.35;;;32.00;70.90;;;;;;5059886;28;20023;-76
2023/09/11 11:51:47;;;;;;;0.10;0.10;;;32.00;70.30;;;;;;5060210;28;20036;-77
2023/09/11 11:54:24;;;;;;;0.95;0.40;;;32.40;70.10;;;;;;5042430;28;20020;-77
2023/09/11 11:57:01;;;;;;;0.10;0.10;;;32.50;69.20;;;;;;5059927;28;20166;-76
2023/09/11 11:59:40;;;;;;;0.00;0.00;;;32.50;68.10;;;;;;5060002;28;20035;-76
2023/09/11 12:02:18;;;;;;;0.15;0.15;;;32.60;68.10;;;;;;5059289;28;20382;-76
2023/09/11 12:04:44;;;;;;;0.95;0.68;;;32.90;67.70;;;;;;5058487;28;20341;-78
2023/09/11 12:07:10;;;;;;;0.00;0.00;;;32.90;68.20;;;;;;5040323;28;20341;-76
2023/09/11 12:09:39;;;;;;;0.13;0.13;;;33.10;69.40;;;;;;5058939;28;20017;-77
2023/09/11 12:12:07;;;;;;;0.20;0.10;;;33.30;66.40;;;;;;5058999;28;20027;-76
2023/09/11 12:14:33;;;;;;;3.47;0.98;;;33.50;66.50;;;;;;5039632;28;20127;-76
2023/09/11 12:16:59;;;;;;;16.35;0.85;;;33.50;65.30;;;;;;5040526;28;20116;-77
2023/09/11 12:19:25;;;;;;;0.25;0.10;;;33.60;65.50;;;;;;5058263;28;20121;-78
2023/09/11 12:21:56;;;;;;;0.10;0.10;;;33.90;65.30;;;;;;5040032;28;20586;-77
2023/09/11 12:24:22;;;;;;;0.15;0.13;;;33.80;63.20;;;;;;5058815;28;20020;-76
2023/09/11 12:26:48;;;;;;;1.45;0.35;;;34.20;63.80;;;;;;5040255;28;20259;-78
2023/09/11 12:29:15;;;;;;;3.30;0.52;;;31.70;61.70;;;;;;5058219;28;20732;-76
2023/09/11 12:31:41;;;;;;;1.25;0.32;;;34.10;63.10;;;;;;5058325;28;20100;-77
2023/09/11 12:34:06;;;;;;;0.63;0.63;;;34.20;61.40;;;;;;5058304;28;20159;-80
2023/09/11 12:36:33;;;;;;;0.25;0.25;;;34.50;61.90;;;;;;5059375;28;20426;-76
2023/09/11 12:38:59;;;;;;;0.10;0.10;;;34.80;61.20;;;;;;5062863;28;20024;-76
2023/09/11 12:41:26;;;;;;;0.20;0.20;;;34.90;60.90;;;;;;5044125;28;20021;-76
2023/09/11 12:43:52;;;;;;;0.00;0.00;;;35.00;60.50;;;;;;5045095;28;20347;-77
2023/09/11 12:46:18;;;;;;;1.48;0.70;;;34.90;60.50;;;;;;5062444;28;20013;-77
2023/09/11 12:48:45;;;;;;;0.20;0.20;;;35.00;60.50;;;;;;5078581;28;20186;-76
2023/09/11 12:51:12;;;;;;;0.28;0.28;;;35.40;61.20;;;;;;5061924;28;20236;-78